Time;durP1;ratioP1;P1;durP2;ratioP2;P2;SDS_P1;SDS_P2;PMS_P1;PMS_P2;Temp;Humidity;BMP_temperature;BMP_pressure;BME280_temperature;BME280_humidity;BME280_pressure;Samples;Min_cycle;Max_cycle;Signal;HPM_P1;HPM_P2
2021/08/13 00:02:11;;;;;;;;;;;;;;;24.56;64.15;101346.56;5029667;28;1541;-65
2021/08/13 00:04:39;;;;;;;;;;;;;;;24.58;64.06;101331.03;5026463;28;1678;-66
2021/08/13 00:07:06;;;;;;;;;;;;;;;24.68;64.06;101340.91;5028219;28;1562;-64
2021/08/13 00:09:32;;;;;;;;;;;;;;;24.48;64.09;101345.66;5032890;28;1351;-66
2021/08/13 00:11:59;;;;;;;;;;;;;;;24.52;63.87;101338.94;5032577;28;1902;-65
2021/08/13 00:14:25;;;;;;;;;;;;;;;24.47;64.63;101339.41;5027240;28;1763;-64
2021/08/13 00:16:52;;;;;;;;;;;;;;;24.52;63.57;101326.25;5028702;28;1047;-66
2021/08/13 00:19:19;;;;;;;;;;;;;;;24.51;63.88;101335.41;5027932;28;1419;-64
2021/08/13 00:21:47;;;;;;;;;;;;;;;24.56;63.38;101332.22;5018932;28;1777;-64
2021/08/13 00:24:14;;;;;;;;;;;;;;;24.60;63.71;101334.44;5027122;28;1575;-64
2021/08/13 00:26:41;;;;;;;;;;;;;;;24.58;63.40;101347.25;5025984;28;1343;-64
2021/08/13 00:29:08;;;;;;;;;;;;;;;24.59;63.37;101338.16;5031872;28;1398;-64
2021/08/13 00:31:34;;;;;;;;;;;;;;;24.58;63.81;101336.44;5028825;28;1906;-64
2021/08/13 00:34:01;;;;;;;;;;;;;;;24.62;63.37;101339.69;5024400;28;1720;-64
2021/08/13 00:36:27;;;;;;;;;;;;;;;24.61;64.09;101328.03;5035142;28;1773;-65
2021/08/13 00:38:55;;;;;;;;;;;;;;;24.60;63.49;101326.31;5031159;28;1395;-65
2021/08/13 00:41:22;;;;;;;;;;;;;;;24.62;64.06;101318.06;5028940;28;1513;-64
2021/08/13 00:43:49;;;;;;;;;;;;;;;24.62;64.08;101342.38;5024609;28;1491;-64
2021/08/13 00:46:16;;;;;;;;;;;;;;;24.59;63.38;101310.25;5026348;28;1630;-64
2021/08/13 00:48:42;;;;;;;;;;;;;;;24.55;63.24;101322.38;5025791;28;1630;-64
2021/08/13 00:51:09;;;;;;;;;;;;;;;24.50;63.47;101333.69;5036429;28;1910;-66
2021/08/13 00:53:35;;;;;;;;;;;;;;;24.42;63.37;101322.78;5028611;28;1545;-66
2021/08/13 00:56:03;;;;;;;;;;;;;;;24.46;63.50;101326.88;5028101;28;1507;-64
2021/08/13 00:58:30;;;;;;;;;;;;;;;24.44;63.90;101328.88;5022829;28;1530;-66
2021/08/13 01:00:57;;;;;;;;;;;;;;;24.42;64.13;101333.59;5029062;28;1367;-64
2021/08/13 01:03:24;;;;;;;;;;;;;;;24.50;63.46;101336.38;5026471;28;1619;-64
2021/08/13 01:05:51;;;;;;;;;;;;;;;24.51;62.86;101321.88;5036921;28;1009;-64
2021/08/13 01:08:17;;;;;;;;;;;;;;;24.52;63.97;101331.66;5030084;28;1502;-66
2021/08/13 01:10:47;;;;;;;;;;;;;;;24.44;63.54;101331.59;5025393;28;1906;-64
2021/08/13 01:13:17;;;;;;;;;;;;;;;24.39;63.28;101334.78;5026001;28;1402;-64
2021/08/13 01:15:47;;;;;;;;;;;;;;;24.38;64.05;101346.56;5025977;28;1626;-64
2021/08/13 01:18:16;;;;;;;;;;;;;;;24.35;63.47;101346.03;5027267;28;1415;-64
2021/08/13 01:21:00;;;;;;;;;;;;;;;24.44;63.78;101341.56;5036444;28;1623;-64
2021/08/13 01:23:30;;;;;;;;;;;;;;;24.51;63.13;101351.63;5023822;28;1757;-64
2021/08/13 01:26:00;;;;;;;;;;;;;;;24.44;63.15;101334.28;5029712;28;1776;-66
2021/08/13 01:28:32;;;;;;;;;;;;;;;24.51;63.31;101345.34;5022038;28;1479;-66
2021/08/13 01:31:00;;;;;;;;;;;;;;;24.48;63.01;101341.06;5025892;28;1911;-65
2021/08/13 01:33:28;;;;;;;;;;;;;;;24.46;62.51;101340.38;5027222;28;1374;-65
2021/08/13 01:35:56;;;;;;;;;;;;;;;24.47;62.37;101344.81;5020737;28;1006;-64
2021/08/13 01:38:24;;;;;;;;;;;;;;;24.35;63.40;101341.50;5031402;28;1502;-66
2021/08/13 01:40:52;;;;;;;;;;;;;;;24.36;63.19;101336.94;5021252;28;1710;-64
2021/08/13 01:43:21;;;;;;;;;;;;;;;24.39;63.36;101347.41;5027266;28;1570;-66
2021/08/13 01:45:47;;;;;;;;;;;;;;;24.34;63.28;101349.75;5025311;28;1574;-66
2021/08/13 01:48:15;;;;;;;;;;;;;;;24.45;62.66;101343.25;5025003;28;1387;-64
2021/08/13 01:50:45;;;;;;;;;;;;;;;24.44;62.94;101355.06;5035646;28;1623;-64
2021/08/13 01:53:12;;;;;;;;;;;;;;;24.38;62.35;101351.97;5026445;28;1907;-65
2021/08/13 01:55:39;;;;;;;;;;;;;;;24.35;62.69;101352.31;5028289;28;1570;-64
2021/08/13 01:58:06;;;;;;;;;;;;;;;24.35;62.84;101362.25;5025436;28;1566;-64
2021/08/13 02:00:32;;;;;;;;;;;;;;;24.43;62.73;101367.72;5024676;28;1567;-64
2021/08/13 02:03:01;;;;;;;;;;;;;;;24.43;62.03;101354.19;5031137;28;1715;-66
2021/08/13 02:05:29;;;;;;;;;;;;;;;24.48;62.18;101357.31;5028200;28;1145;-66
2021/08/13 02:08:05;;;;;;;;;;;;;;;24.47;61.93;101350.22;5026876;28;1726;-66
2021/08/13 02:10:32;;;;;;;;;;;;;;;24.41;62.12;101353.50;5026873;28;1574;-66
2021/08/13 02:12:58;;;;;;;;;;;;;;;24.34;62.80;101356.00;5022343;28;1977;-66
2021/08/13 02:15:25;;;;;;;;;;;;;;;24.53;62.72;101364.97;5027236;28;1622;-66
2021/08/13 02:17:55;;;;;;;;;;;;;;;24.51;61.91;101359.72;5024978;28;1391;-66
2021/08/13 02:20:22;;;;;;;;;;;;;;;24.53;62.45;101356.84;5023845;28;1303;-66
2021/08/13 02:22:49;;;;;;;;;;;;;;;24.52;62.06;101366.81;5022545;28;1757;-64
2021/08/13 02:25:17;;;;;;;;;;;;;;;24.53;62.56;101379.34;5024750;28;1578;-66
2021/08/13 02:27:44;;;;;;;;;;;;;;;24.56;62.76;101387.13;5023110;28;1535;-64
2021/08/13 02:30:11;;;;;;;;;;;;;;;24.50;62.53;101384.19;5026973;28;1645;-66
2021/08/13 02:32:38;;;;;;;;;;;;;;;24.47;62.52;101376.38;5027654;28;1914;-66
2021/08/13 02:35:05;;;;;;;;;;;;;;;24.41;62.95;101380.53;5024132;28;992;-66
2021/08/13 02:37:35;;;;;;;;;;;;;;;24.39;62.63;101374.44;5020857;28;1498;-64
2021/08/13 02:40:03;;;;;;;;;;;;;;;24.43;62.53;101375.84;5025653;28;1524;-66
2021/08/13 02:42:35;;;;;;;;;;;;;;;24.39;62.49;101380.72;5022254;28;1582;-65
2021/08/13 02:45:02;;;;;;;;;;;;;;;24.45;62.68;101381.94;5026004;28;1575;-66
2021/08/13 02:47:30;;;;;;;;;;;;;;;24.44;61.79;101377.53;5024254;28;1410;-64
2021/08/13 02:50:00;;;;;;;;;;;;;;;24.45;61.49;101381.94;5027100;28;1492;-66
2021/08/13 02:52:30;;;;;;;;;;;;;;;24.37;62.71;101392.69;5027977;28;1946;-67
2021/08/13 02:55:00;;;;;;;;;;;;;;;24.35;62.44;101391.97;5026796;28;1406;-66
2021/08/13 02:57:30;;;;;;;;;;;;;;;24.36;62.84;101401.81;5021258;28;1371;-66
2021/08/13 02:59:58;;;;;;;;;;;;;;;24.46;61.94;101402.56;5025878;28;1575;-66
2021/08/13 03:02:27;;;;;;;;;;;;;;;24.46;62.04;101401.72;5024270;28;1579;-67
2021/08/13 03:04:55;;;;;;;;;;;;;;;24.37;62.10;101392.69;5026459;28;1056;-67
2021/08/13 03:07:24;;;;;;;;;;;;;;;24.40;62.54;101408.59;5029699;28;1534;-64
2021/08/13 03:09:51;;;;;;;;;;;;;;;24.39;62.64;101398.78;5023315;28;1649;-66
2021/08/13 03:12:18;;;;;;;;;;;;;;;24.32;61.94;101398.56;5021891;28;1898;-66
2021/08/13 03:14:46;;;;;;;;;;;;;;;24.25;62.77;101396.63;5022549;28;1434;-64
2021/08/13 03:17:14;;;;;;;;;;;;;;;24.24;61.87;101401.19;5023501;28;1602;-67
2021/08/13 03:19:41;;;;;;;;;;;;;;;24.23;62.21;101396.78;5029765;28;1529;-66
2021/08/13 03:22:08;;;;;;;;;;;;;;;24.29;62.07;101411.53;5028534;28;1635;-66
2021/08/13 03:24:35;;;;;;;;;;;;;;;24.28;62.21;101405.28;5025214;28;1371;-65
2021/08/13 03:27:02;;;;;;;;;;;;;;;24.31;61.96;101394.19;5023984;28;1575;-64
2021/08/13 03:29:28;;;;;;;;;;;;;;;24.27;61.69;101390.06;5030860;28;1316;-66
2021/08/13 03:31:58;;;;;;;;;;;;;;;24.29;62.63;101400.72;5025401;28;1903;-66
2021/08/13 03:34:26;;;;;;;;;;;;;;;24.25;62.19;101410.16;5029497;28;1011;-67
2021/08/13 03:36:53;;;;;;;;;;;;;;;24.37;62.47;101420.59;5031703;28;1576;-66
2021/08/13 03:39:20;;;;;;;;;;;;;;;24.35;62.22;101414.47;5028012;28;1519;-63
2021/08/13 03:41:46;;;;;;;;;;;;;;;24.35;61.43;101429.81;5032976;28;1357;-66
2021/08/13 03:44:13;;;;;;;;;;;;;;;24.37;61.90;101419.72;5029665;28;1051;-66
2021/08/13 03:46:39;;;;;;;;;;;;;;;24.35;62.35;101416.31;5029593;28;1694;-64
2021/08/13 03:49:06;;;;;;;;;;;;;;;24.30;61.47;101408.69;5028519;28;1562;-66
2021/08/13 03:51:34;;;;;;;;;;;;;;;24.33;62.37;101424.59;5035249;28;1981;-61
2021/08/13 03:54:01;;;;;;;;;;;;;;;24.42;61.83;101439.03;5036497;28;1380;-64
2021/08/13 03:56:28;;;;;;;;;;;;;;;24.42;62.05;101422.81;5032558;28;1327;-67
2021/08/13 03:58:54;;;;;;;;;;;;;;;24.35;61.98;101421.72;5029268;28;1430;-64
2021/08/13 04:01:21;;;;;;;;;;;;;;;24.16;62.13;101439.78;5029167;28;1518;-68
2021/08/13 04:03:47;;;;;;;;;;;;;;;23.98;62.34;101428.13;5023617;28;1777;-68
2021/08/13 04:06:14;;;;;;;;;;;;;;;24.13;62.06;101428.44;5021757;28;1551;-66
2021/08/13 04:08:42;;;;;;;;;;;;;;;24.25;61.61;101429.91;5024450;28;1611;-65
2021/08/13 04:11:08;;;;;;;;;;;;;;;24.34;61.94;101426.28;5030674;28;1022;-62
2021/08/13 04:13:35;;;;;;;;;;;;;;;24.42;61.44;101428.22;5031103;28;1975;-67
2021/08/13 04:16:01;;;;;;;;;;;;;;;24.37;60.97;101417.88;5027133;28;1626;-64
2021/08/13 04:18:28;;;;;;;;;;;;;;;24.43;61.50;101440.72;5027505;28;1630;-68
2021/08/13 04:20:55;;;;;;;;;;;;;;;24.39;61.29;101437.50;5036866;28;1674;-64
2021/08/13 04:23:21;;;;;;;;;;;;;;;24.46;60.81;101453.09;5031061;28;1674;-68
2021/08/13 04:25:49;;;;;;;;;;;;;;;24.50;60.85;101447.25;5021975;28;1260;-64
2021/08/13 04:28:16;;;;;;;;;;;;;;;24.41;61.06;101459.81;5029374;28;1352;-64
2021/08/13 04:30:42;;;;;;;;;;;;;;;24.50;60.79;101452.66;5034330;28;1374;-64
2021/08/13 04:33:10;;;;;;;;;;;;;;;24.51;61.45;101465.19;5028914;28;1967;-64
2021/08/13 04:47:35;;;;;;;;;;;;;;;24.50;61.92;101474.28;4833831;27;8272882;-48
2021/08/13 04:50:04;;;;;;;;;;;;;;;24.41;62.06;101480.56;5106223;28;1675;-49
2021/08/13 04:52:31;;;;;;;;;;;;;;;24.40;61.99;101484.28;5116528;28;1694;-48
2021/08/13 04:57:38;;;;;;;;;;;;;;;24.58;61.93;101492.44;5108099;28;2333;-48
2021/08/13 05:00:07;;;;;;;;;;;;;;;24.64;61.93;101499.94;5115345;28;1933;-49
2021/08/13 05:02:45;;;;;;;;;;;;;;;24.61;61.51;101502.94;5121675;27;1858;-48
2021/08/13 05:05:12;;;;;;;;;;;;;;;24.65;61.95;101522.41;5108963;28;1667;-49
2021/08/13 05:07:43;;;;;;;;;;;;;;;24.72;61.66;101524.34;5116303;27;1276;-49
2021/08/13 05:10:27;;;;;;;;;;;;;;;24.74;61.29;101507.97;5126043;28;1749;-49
2021/08/13 05:12:55;;;;;;;;;;;;;;;24.74;61.60;101505.25;5110353;28;1771;-48
2021/08/13 05:15:30;;;;;;;;;;;;;;;24.79;61.61;101524.59;5116515;28;1905;-50
2021/08/13 05:18:05;;;;;;;;;;;;;;;24.77;61.13;101507.63;5089650;28;1933;-48
2021/08/13 05:20:36;;;;;;;;;;;;;;;24.77;61.82;101513.03;5093564;28;1583;-49
2021/08/13 05:23:08;;;;;;;;;;;;;;;24.79;62.16;101521.88;5124010;27;1974;-49
2021/08/13 05:25:34;;;;;;;;;;;;;;;24.72;62.17;101524.34;5113628;27;1742;-49
2021/08/13 05:28:10;;;;;;;;;;;;;;;24.85;61.68;101531.22;5111853;28;1598;-49
2021/08/13 05:30:43;;;;;;;;;;;;;;;24.94;61.26;101543.81;5114747;27;1735;-49
2021/08/13 05:33:16;;;;;;;;;;;;;;;24.81;60.54;101528.84;5111578;27;1851;-49
2021/08/13 05:38:24;;;;;;;;;;;;;;;25.01;60.74;101534.91;5108506;28;2580;-48
2021/08/13 05:40:51;;;;;;;;;;;;;;;24.98;60.57;101529.81;5119205;28;1713;-49
2021/08/13 05:43:18;;;;;;;;;;;;;;;25.14;60.76;101539.06;5113548;27;1462;-48
2021/08/13 05:45:48;;;;;;;;;;;;;;;25.20;60.98;101531.16;5132942;27;1209;-49
2021/08/13 05:48:32;;;;;;;;;;;;;;;25.22;60.58;101536.44;5120646;27;1345;-49
2021/08/13 05:51:01;;;;;;;;;;;;;;;25.17;60.51;101519.81;5109323;28;1811;-48
2021/08/13 05:53:28;;;;;;;;;;;;;;;25.15;61.09;101528.09;5112903;27;1344;-49
2021/08/13 05:55:57;;;;;;;;;;;;;;;25.05;60.43;101531.88;5117166;27;1975;-48
2021/08/13 05:58:24;;;;;;;;;;;;;;;24.95;60.17;101522.00;5105783;28;1386;-48
2021/08/13 06:00:53;;;;;;;;;;;;;;;24.88;60.36;101523.63;5126911;27;1326;-49
2021/08/13 06:03:20;;;;;;;;;;;;;;;25.07;59.81;101536.16;5113522;28;1364;-49
2021/08/13 06:05:53;;;;;;;;;;;;;;;25.10;59.66;101540.38;5105693;27;1738;-48
2021/08/13 06:08:31;;;;;;;;;;;;;;;25.13;59.32;101540.09;5114299;28;1579;-48
2021/08/13 06:10:59;;;;;;;;;;;;;;;25.22;59.46;101544.56;5123373;27;1644;-49
2021/08/13 06:13:29;;;;;;;;;;;;;;;25.23;59.03;101550.81;5119023;27;1360;-48
2021/08/13 06:16:03;;;;;;;;;;;;;;;25.27;59.15;101563.03;5115910;27;1905;-49
2021/08/13 06:18:33;;;;;;;;;;;;;;;25.19;59.94;101566.53;5132617;27;1158;-49
2021/08/13 06:21:00;;;;;;;;;;;;;;;25.44;60.65;101558.59;5134559;27;1781;-48
2021/08/13 06:23:30;;;;;;;;;;;;;;;25.59;60.57;101563.28;5119217;27;1777;-50
2021/08/13 06:25:58;;;;;;;;;;;;;;;25.66;59.70;101571.59;5100848;27;1582;-49
2021/08/13 06:28:24;;;;;;;;;;;;;;;25.71;60.42;101571.13;5127505;27;1896;-48
2021/08/13 06:30:52;;;;;;;;;;;;;;;25.75;60.18;101572.50;5115037;27;1513;-48
2021/08/13 06:33:18;;;;;;;;;;;;;;;25.76;60.68;101579.59;5108633;27;1596;-49
2021/08/13 06:35:45;;;;;;;;;;;;;;;25.69;60.21;101565.88;5115110;27;1990;-49
2021/08/13 06:38:16;;;;;;;;;;;;;;;25.70;60.67;101559.41;5119435;27;1394;-49
2021/08/13 06:40:47;;;;;;;;;;;;;;;25.76;60.59;101561.50;5132609;27;1795;-49
2021/08/13 06:43:13;;;;;;;;;;;;;;;25.78;61.08;101573.03;5095772;28;1604;-50
2021/08/13 06:45:40;;;;;;;;;;;;;;;25.74;60.97;101558.09;5121737;27;1622;-49
2021/08/13 06:48:10;;;;;;;;;;;;;;;25.68;60.42;101556.03;5099784;28;1569;-49
2021/08/13 06:50:45;;;;;;;;;;;;;;;25.74;60.89;101570.78;5116884;27;1915;-49
2021/08/13 06:53:13;;;;;;;;;;;;;;;25.77;61.22;101570.47;5124407;27;1654;-49
2021/08/13 06:55:39;;;;;;;;;;;;;;;25.79;61.20;101569.31;5111065;27;1909;-49
2021/08/13 06:58:12;;;;;;;;;;;;;;;25.82;61.09;101559.16;5105954;28;1559;-48
2021/08/13 07:00:41;;;;;;;;;;;;;;;25.85;61.00;101566.97;5119030;27;1668;-49
2021/08/13 07:03:10;;;;;;;;;;;;;;;25.89;61.61;101557.50;5108664;27;1887;-48
2021/08/13 07:05:40;;;;;;;;;;;;;;;25.83;61.00;101552.75;5113536;28;1752;-50
2021/08/13 07:08:11;;;;;;;;;;;;;;;25.80;61.15;101540.34;5101880;27;1526;-49
2021/08/13 07:10:40;;;;;;;;;;;;;;;25.85;60.98;101556.13;5103656;27;1676;-49
2021/08/13 07:13:15;;;;;;;;;;;;;;;25.85;61.08;101556.97;5103588;28;1703;-49
2021/08/13 07:15:42;;;;;;;;;;;;;;;25.87;60.15;101559.53;5113551;27;1933;-49
2021/08/13 07:18:10;;;;;;;;;;;;;;;25.88;60.10;101553.09;5117601;27;1741;-50
2021/08/13 07:20:58;;;;;;;;;;;;;;;25.87;60.58;101554.13;5102720;27;1681;-49
2021/08/13 07:23:27;;;;;;;;;;;;;;;25.86;59.78;101546.97;5106930;28;1664;-49
2021/08/13 07:25:56;;;;;;;;;;;;;;;25.91;59.89;101569.06;5117961;27;1759;-49
2021/08/13 07:28:31;;;;;;;;;;;;;;;25.92;60.79;101570.75;5111821;27;1480;-50
2021/08/13 07:30:59;;;;;;;;;;;;;;;25.87;60.97;101559.53;5093329;28;1712;-49
2021/08/13 07:33:29;;;;;;;;;;;;;;;25.86;61.10;101552.41;5123378;27;1664;-50
2021/08/13 07:35:58;;;;;;;;;;;;;;;25.86;60.47;101549.69;5103911;27;1906;-48
2021/08/13 07:38:29;;;;;;;;;;;;;;;25.79;60.28;101563.88;5115522;27;1600;-50
2021/08/13 07:40:58;;;;;;;;;;;;;;;25.24;58.65;101550.66;5116620;27;1605;-49
2021/08/13 07:43:27;;;;;;;;;;;;;;;24.72;57.98;101569.47;5131344;27;1775;-49
2021/08/13 07:45:55;;;;;;;;;;;;;;;24.41;58.28;101583.31;5100081;27;1744;-51
2021/08/13 07:48:23;;;;;;;;;;;;;;;24.27;57.17;101573.00;5127529;27;1079;-49
2021/08/13 07:50:54;;;;;;;;;;;;;;;24.26;57.05;101574.03;5131616;27;1769;-49
2021/08/13 07:53:21;;;;;;;;;;;;;;;24.06;56.87;101568.72;5112687;28;1737;-49
2021/08/13 07:55:48;;;;;;;;;;;;;;;24.08;56.58;101577.53;5113540;28;1977;-51
2021/08/13 08:01:18;;;;;;;;;;;;;;;24.16;57.47;101568.66;5116399;27;1760;-48
2021/08/13 08:03:48;;;;;;;;;;;;;;;24.16;57.29;101595.69;5131641;27;1233;-50
2021/08/13 08:06:24;;;;;;;;;;;;;;;24.26;57.79;101574.03;5116086;27;1868;-49
2021/08/13 08:08:54;;;;;;;;;;;;;;;24.14;57.77;101589.59;5104348;27;2011;-49
2021/08/13 08:11:21;;;;;;;;;;;;;;;24.04;57.48;101575.28;5113651;27;1750;-48
2021/08/13 08:13:52;;;;;;;;;;;;;;;23.94;57.89;101583.41;5119390;27;1547;-49
2021/08/13 08:16:18;;;;;;;;;;;;;;;23.97;57.66;101585.81;5104425;27;1906;-49
2021/08/13 08:18:50;;;;;;;;;;;;;;;23.97;57.76;101569.59;5122569;27;1540;-50
2021/08/13 08:21:16;;;;;;;;;;;;;;;23.91;58.16;101573.75;5114756;28;1673;-48
2021/08/13 08:23:44;;;;;;;;;;;;;;;23.90;58.46;101574.75;5112157;27;1798;-49
2021/08/13 08:26:10;;;;;;;;;;;;;;;23.80;58.13;101573.94;5104807;28;1615;-49
2021/08/13 08:28:45;;;;;;;;;;;;;;;23.91;57.81;101575.59;5108915;28;1733;-49
2021/08/13 08:31:14;;;;;;;;;;;;;;;23.77;58.37;101575.06;5106102;28;1759;-50
2021/08/13 08:33:42;;;;;;;;;;;;;;;23.89;58.24;101583.84;5109758;28;1777;-49
2021/08/13 08:36:14;;;;;;;;;;;;;;;23.93;57.53;101577.13;5110187;28;1914;-49
2021/08/13 08:38:42;;;;;;;;;;;;;;;23.88;58.14;101575.91;5107464;28;1794;-49
2021/08/13 08:41:10;;;;;;;;;;;;;;;23.84;58.12;101571.81;5122675;28;1554;-48
2021/08/13 08:43:38;;;;;;;;;;;;;;;23.79;58.21;101581.16;5113075;28;1459;-49
2021/08/13 08:46:06;;;;;;;;;;;;;;;23.84;58.03;101579.91;5109623;28;1589;-49
2021/08/13 08:48:35;;;;;;;;;;;;;;;23.73;58.44;101575.50;5125078;28;1935;-48
2021/08/13 08:51:02;;;;;;;;;;;;;;;23.78;58.13;101570.53;5103861;28;1827;-49
2021/08/13 08:53:31;;;;;;;;;;;;;;;23.86;57.86;101588.72;5111697;28;1535;-49
2021/08/13 08:55:58;;;;;;;;;;;;;;;23.75;58.27;101582.44;5117594;28;1917;-49
2021/08/13 08:58:29;;;;;;;;;;;;;;;23.72;58.24;101576.50;5106324;28;1837;-49
2021/08/13 09:00:55;;;;;;;;;;;;;;;23.67;58.26;101586.88;5123086;28;1559;-49
2021/08/13 09:03:23;;;;;;;;;;;;;;;23.75;58.15;101574.34;5126572;28;997;-50
2021/08/13 09:05:53;;;;;;;;;;;;;;;23.80;57.64;101596.41;5105774;28;1683;-50
2021/08/13 09:08:22;;;;;;;;;;;;;;;23.71;57.99;101578.34;5111320;28;1651;-50
2021/08/13 09:10:50;;;;;;;;;;;;;;;23.60;58.52;101579.38;5103471;28;1557;-51
2021/08/13 09:13:22;;;;;;;;;;;;;;;23.55;58.34;101583.50;5111648;28;1583;-50
2021/08/13 09:15:52;;;;;;;;;;;;;;;23.59;58.22;101574.09;5108237;28;1470;-50
2021/08/13 09:18:19;;;;;;;;;;;;;;;23.53;58.52;101572.84;5105427;28;1902;-50
2021/08/13 09:20:50;;;;;;;;;;;;;;;23.62;58.44;101573.84;5110745;28;1530;-50
2021/08/13 09:23:31;;;;;;;;;;;;;;;23.55;58.16;101578.09;5114605;27;1840;-50
2021/08/13 09:26:03;;;;;;;;;;;;;;;23.60;58.18;101578.53;5106394;27;1474;-50
2021/08/13 09:28:43;;;;;;;;;;;;;;;23.54;58.44;101573.72;5111453;27;1429;-50
2021/08/13 09:31:11;;;;;;;;;;;;;;;23.50;58.06;101577.72;5107643;27;1662;-50
2021/08/13 09:33:38;;;;;;;;;;;;;;;23.49;58.41;101582.22;5101875;27;1349;-50
2021/08/13 09:36:14;;;;;;;;;;;;;;;23.45;58.24;101606.97;5112580;27;1901;-49
2021/08/13 09:38:41;;;;;;;;;;;;;;;23.60;58.06;101605.53;5125444;27;1629;-49
2021/08/13 09:41:10;;;;;;;;;;;;;;;23.47;58.29;101589.63;5121071;27;1913;-50
2021/08/13 09:43:56;;;;;;;;;;;;;;;23.54;57.76;101579.97;5110328;28;1845;-50
2021/08/13 09:46:30;;;;;;;;;;;;;;;23.51;58.18;101601.00;5119572;27;1563;-50
2021/08/13 09:49:16;;;;;;;;;;;;;;;23.44;57.87;101589.94;5125841;27;1256;-50
2021/08/13 09:51:43;;;;;;;;;;;;;;;23.56;57.79;101590.63;5117536;27;1907;-50
2021/08/13 09:54:11;;;;;;;;;;;;;;;23.55;58.18;101621.28;5118102;27;1685;-50
2021/08/13 09:56:43;;;;;;;;;;;;;;;23.46;58.90;101600.56;5113259;27;1986;-49
2021/08/13 09:59:11;;;;;;;;;;;;;;;23.53;59.16;101591.75;5117290;27;1723;-49
2021/08/13 10:01:41;;;;;;;;;;;;;;;23.50;59.12;101580.41;5116230;27;1949;-50
2021/08/13 10:04:09;;;;;;;;;;;;;;;23.59;59.34;101582.22;5116809;27;1058;-50
2021/08/13 10:06:37;;;;;;;;;;;;;;;23.61;59.66;101591.00;5110048;27;1530;-50
2021/08/13 10:09:06;;;;;;;;;;;;;;;23.60;59.74;101586.63;5112963;27;1539;-50
2021/08/13 10:11:34;;;;;;;;;;;;;;;23.55;59.99;101580.81;5114117;27;1944;-49
2021/08/13 10:14:05;;;;;;;;;;;;;;;23.63;59.95;101586.31;5110742;27;1453;-49
2021/08/13 10:16:31;;;;;;;;;;;;;;;23.58;60.30;101562.47;5132144;27;2023;-50
2021/08/13 10:18:59;;;;;;;;;;;;;;;23.62;60.20;101582.78;5121932;27;1491;-49
2021/08/13 10:21:27;;;;;;;;;;;;;;;23.56;60.81;101577.13;5108610;27;1691;-49
2021/08/13 10:24:02;;;;;;;;;;;;;;;23.60;60.64;101583.94;5116829;27;1259;-50
2021/08/13 10:26:29;;;;;;;;;;;;;;;23.57;60.97;101571.56;5111467;27;1741;-49
2021/08/13 10:29:04;;;;;;;;;;;;;;;23.65;60.46;101565.41;5117279;27;1567;-50
2021/08/13 10:31:32;;;;;;;;;;;;;;;23.62;60.53;101579.22;5119370;27;1513;-48
2021/08/13 10:34:20;;;;;;;;;;;;;;;23.58;61.17;101565.16;5109118;28;1662;-50
2021/08/13 10:36:51;;;;;;;;;;;;;;;23.75;60.44;101577.03;5100395;28;1963;-49
2021/08/13 10:39:23;;;;;;;;;;;;;;;23.60;61.31;101556.94;5115307;27;1685;-49
2021/08/13 10:41:51;;;;;;;;;;;;;;;23.63;61.08;101562.00;5113682;27;1577;-50
2021/08/13 10:44:21;;;;;;;;;;;;;;;23.71;61.14;101564.81;5106897;28;1715;-50
2021/08/13 10:46:51;;;;;;;;;;;;;;;23.68;60.80;101567.00;5117790;27;1973;-50
2021/08/13 10:49:27;;;;;;;;;;;;;;;23.61;61.30;101561.31;5125925;27;1010;-50
2021/08/13 10:54:52;;;;;;;;;;;;;;;23.74;61.38;101563.69;5102087;27;1760;-49
2021/08/13 10:57:39;;;;;;;;;;;;;;;23.71;61.49;101547.78;5111118;27;1978;-49
2021/08/13 11:00:09;;;;;;;;;;;;;;;23.75;61.23;101555.44;5115889;27;2140;-50
2021/08/13 11:02:45;;;;;;;;;;;;;;;23.91;60.49;101543.19;5112929;28;1894;-49
2021/08/13 11:05:12;;;;;;;;;;;;;;;23.99;60.75;101546.84;5116215;27;1507;-48
2021/08/13 11:08:08;;;;;;;;;;;;;;;24.04;60.29;101543.69;5128270;27;1526;-48
2021/08/13 11:11:07;;;;;;;;;;;;;;;24.05;60.18;101548.09;5116233;27;1651;-50
2021/08/13 11:13:36;;;;;;;;;;;;;;;24.03;60.30;101547.38;5031554;28;2054;-51
2021/08/13 11:16:03;;;;;;;;;;;;;;;24.08;60.38;101534.28;5027335;28;1879;-49
2021/08/13 11:18:39;;;;;;;;;;;;;;;24.07;59.49;101543.38;5064194;27;1910;-49
2021/08/13 11:21:11;;;;;;;;;;;;;;;24.05;59.95;101545.38;5115865;27;1752;-49
2021/08/13 11:23:53;;;;;;;;;;;;;;;24.11;59.51;101533.97;5111813;28;1530;-49
2021/08/13 11:26:42;;;;;;;;;;;;;;;24.02;59.75;101543.00;5123790;27;1754;-49
2021/08/13 11:29:29;;;;;;;;;;;;;;;24.04;59.87;101529.34;5119910;27;1837;-48
2021/08/13 11:31:57;;;;;;;;;;;;;;;24.04;59.89;101532.88;5112631;28;1738;-49
2021/08/13 11:34:42;;;;;;;;;;;;;;;24.01;59.59;101527.78;5069732;28;1741;-49
2021/08/13 11:37:13;;;;;;;;;;;;;;;24.07;59.98;101537.13;5108571;27;2007;-49
2021/08/13 11:39:42;;;;;;;;;;;;;;;24.15;59.71;101535.41;5112956;28;1624;-49
2021/08/13 11:42:10;;;;;;;;;;;;;;;24.13;60.54;101537.41;5118523;27;1773;-49
2021/08/13 11:44:39;;;;;;;;;;;;;;;24.24;61.26;101535.50;5117251;27;1442;-49
2021/08/13 11:47:09;;;;;;;;;;;;;;;24.28;61.77;101523.38;5118522;27;1593;-49
2021/08/13 11:49:39;;;;;;;;;;;;;;;24.28;62.37;101526.06;5111715;28;1754;-50
2021/08/13 11:52:06;;;;;;;;;;;;;;;24.09;63.12;101517.06;5112453;27;1707;-49
2021/08/13 11:54:39;;;;;;;;;;;;;;;24.04;62.67;101511.28;5110715;28;2004;-48
2021/08/13 11:57:12;;;;;;;;;;;;;;;23.98;62.25;101522.69;5117246;27;1984;-50
2021/08/13 11:59:40;;;;;;;;;;;;;;;23.90;62.51;101523.44;5116545;27;1740;-49
2021/08/13 12:02:23;;;;;;;;;;;;;;;23.88;62.69;101508.38;5113051;28;1640;-50
2021/08/13 12:05:02;;;;;;;;;;;;;;;23.97;62.19;101515.56;5093057;28;1017;-49
2021/08/13 12:07:29;;;;;;;;;;;;;;;24.39;61.43;101509.63;5110055;27;1720;-51
2021/08/13 12:09:58;;;;;;;;;;;;;;;24.67;60.87;101506.88;5102985;28;1530;-49
2021/08/13 12:12:31;;;;;;;;;;;;;;;24.84;60.28;101503.31;5099694;27;1528;-50
2021/08/13 12:14:58;;;;;;;;;;;;;;;24.91;60.03;101499.00;5112303;27;1496;-48
2021/08/13 12:17:26;;;;;;;;;;;;;;;24.98;58.76;101497.34;5112811;28;1985;-50
2021/08/13 12:19:54;;;;;;;;;;;;;;;25.06;59.02;101493.84;5107590;28;1816;-49
2021/08/13 12:22:31;;;;;;;;;;;;;;;25.21;57.42;101499.53;5109436;28;1348;-49
2021/08/13 12:25:00;;;;;;;;;;;;;;;25.27;57.78;101498.06;5103080;28;1755;-49
2021/08/13 12:27:38;;;;;;;;;;;;;;;25.28;57.19;101500.63;5121267;27;1658;-49
2021/08/13 12:30:22;;;;;;;;;;;;;;;25.33;56.88;101494.75;5112232;27;1376;-49
2021/08/13 12:35:53;;;;;;;;;;;;;;;25.38;55.03;101495.94;5105294;28;1839;-48
2021/08/13 12:38:29;;;;;;;;;;;;;;;25.44;55.10;101491.75;5117562;28;1985;-48
2021/08/13 12:41:14;;;;;;;;;;;;;;;25.47;54.97;101496.84;5103445;28;1588;-48
2021/08/13 12:43:40;;;;;;;;;;;;;;;25.49;54.23;101492.13;5101796;28;1667;-48
2021/08/13 12:46:07;;;;;;;;;;;;;;;25.56;52.77;101489.59;5109910;28;1532;-49
2021/08/13 12:48:34;;;;;;;;;;;;;;;25.51;52.84;101483.84;5112100;28;1336;-50
2021/08/13 12:51:02;;;;;;;;;;;;;;;25.54;54.84;101469.97;5113189;28;1628;-49
2021/08/13 12:53:50;;;;;;;;;;;;;;;25.42;53.78;101480.22;5113346;28;1674;-48
2021/08/13 12:56:20;;;;;;;;;;;;;;;25.51;53.17;101483.84;5102031;28;1572;-49
2021/08/13 12:58:46;;;;;;;;;;;;;;;25.66;53.53;101471.38;5118046;27;1973;-49
2021/08/13 13:01:48;;;;;;;;;;;;;;;25.58;53.68;101483.00;5103195;27;1372;-48
2021/08/13 13:04:20;;;;;;;;;;;;;;;25.64;52.67;101473.38;5112788;28;1543;-49
2021/08/13 13:06:51;;;;;;;;;;;;;;;25.85;51.77;101480.28;5115519;27;1700;-49
2021/08/13 13:09:30;;;;;;;;;;;;;;;25.91;51.56;101472.34;5111638;28;1684;-49
2021/08/13 13:12:11;;;;;;;;;;;;;;;25.79;51.61;101476.34;5120769;27;1645;-48
2021/08/13 13:14:49;;;;;;;;;;;;;;;25.77;51.85;101471.09;5108303;27;1783;-49
2021/08/13 13:17:17;;;;;;;;;;;;;;;25.77;51.56;101470.25;5122260;27;1909;-49
2021/08/13 13:20:05;;;;;;;;;;;;;;;25.75;52.18;101475.81;5133534;27;1778;-48
2021/08/13 13:22:33;;;;;;;;;;;;;;;25.77;51.82;101473.78;5124626;27;1951;-49
2021/08/13 13:25:11;;;;;;;;;;;;;;;25.86;51.34;101471.13;5111130;28;1669;-49
2021/08/13 13:27:54;;;;;;;;;;;;;;;25.76;52.41;101465.81;5102067;28;1508;-48
2021/08/13 13:30:32;;;;;;;;;;;;;;;25.80;51.47;101473.47;5116420;27;1622;-48